sensor_id;sensor_type;location;lat;lon;timestamp;pressure;altitude;pressure_sealevel;temperature;humidity
83264;BME280;73156;50.988;11.034;2024-03-06T00:00:59;99549.22;;;16.47;52.79
83264;BME280;73156;50.988;11.034;2024-03-06T00:03:24;99551.97;;;16.29;52.64
83264;BME280;73156;50.988;11.034;2024-03-06T00:05:49;99553.19;;;16.15;52.74
83264;BME280;73156;50.988;11.034;2024-03-06T00:08:15;99554.56;;;16.06;53.06
83264;BME280;73156;50.988;11.034;2024-03-06T00:10:41;99554.88;;;15.98;53.06
83264;BME280;73156;50.988;11.034;2024-03-06T00:13:06;99560.44;;;15.98;53.33
83264;BME280;73156;50.988;11.034;2024-03-06T00:15:31;99569.84;;;15.97;52.66
83264;BME280;73156;50.988;11.034;2024-03-06T00:17:57;99571.16;;;15.94;52.19
83264;BME280;73156;50.988;11.034;2024-03-06T00:20:23;99563.75;;;15.88;52.39
83264;BME280;73156;50.988;11.034;2024-03-06T00:22:49;99567.19;;;15.84;52.30
83264;BME280;73156;50.988;11.034;2024-03-06T00:25:14;99573.22;;;15.81;52.46
83264;BME280;73156;50.988;11.034;2024-03-06T00:27:39;99569.81;;;15.79;52.77
83264;BME280;73156;50.988;11.034;2024-03-06T00:30:05;99556.34;;;15.82;52.42
83264;BME280;73156;50.988;11.034;2024-03-06T00:32:30;99570.69;;;15.97;51.80
83264;BME280;73156;50.988;11.034;2024-03-06T00:34:55;99572.72;;;16.08;51.75
83264;BME280;73156;50.988;11.034;2024-03-06T00:37:21;99576.88;;;16.17;51.46
83264;BME280;73156;50.988;11.034;2024-03-06T00:39:46;99580.66;;;16.23;51.10
83264;BME280;73156;50.988;11.034;2024-03-06T00:42:11;99589.50;;;16.13;50.49
83264;BME280;73156;50.988;11.034;2024-03-06T00:44:38;99547.06;;;15.70;51.42
83264;BME280;73156;50.988;11.034;2024-03-06T00:47:04;99590.88;;;15.86;50.58
83264;BME280;73156;50.988;11.034;2024-03-06T00:49:29;99589.47;;;15.77;51.18
83264;BME280;73156;50.988;11.034;2024-03-06T00:51:54;99592.44;;;15.76;51.19
83264;BME280;73156;50.988;11.034;2024-03-06T00:54:19;99590.91;;;15.80;51.36
83264;BME280;73156;50.988;11.034;2024-03-06T00:56:45;99566.09;;;15.67;51.05
83264;BME280;73156;50.988;11.034;2024-03-06T00:59:10;99569.31;;;15.64;50.74
83264;BME280;73156;50.988;11.034;2024-03-06T01:01:35;99569.63;;;15.56;50.78
83264;BME280;73156;50.988;11.034;2024-03-06T01:04:01;99601.72;;;15.70;51.11
83264;BME280;73156;50.988;11.034;2024-03-06T01:06:27;99551.25;;;15.37;51.60
83264;BME280;73156;50.988;11.034;2024-03-06T01:08:52;99605.53;;;15.69;51.30
83264;BME280;73156;50.988;11.034;2024-03-06T01:11:17;99599.75;;;15.70;51.22
83264;BME280;73156;50.988;11.034;2024-03-06T01:13:42;99602.53;;;15.70;51.29
83264;BME280;73156;50.988;11.034;2024-03-06T01:16:08;99607.06;;;15.65;50.86
83264;BME280;73156;50.988;11.034;2024-03-06T01:18:33;99582.06;;;15.47;50.80
83264;BME280;73156;50.988;11.034;2024-03-06T01:20:59;99611.56;;;15.66;50.78
83264;BME280;73156;50.988;11.034;2024-03-06T01:23:24;99607.34;;;15.57;50.92
83264;BME280;73156;50.988;11.034;2024-03-06T01:25:49;99612.69;;;15.58;50.67
83264;BME280;73156;50.988;11.034;2024-03-06T01:28:14;99616.13;;;15.54;50.99
83264;BME280;73156;50.988;11.034;2024-03-06T01:30:40;99618.00;;;15.60;50.73
83264;BME280;73156;50.988;11.034;2024-03-06T01:33:05;99619.09;;;15.59;50.66
83264;BME280;73156;50.988;11.034;2024-03-06T01:35:31;99628.22;;;15.59;50.54
83264;BME280;73156;50.988;11.034;2024-03-06T01:37:56;99618.00;;;15.60;50.64
83264;BME280;73156;50.988;11.034;2024-03-06T01:40:21;99622.00;;;15.64;50.77
83264;BME280;73156;50.988;11.034;2024-03-06T01:42:47;99632.94;;;15.59;50.25
83264;BME280;73156;50.988;11.034;2024-03-06T01:45:14;99628.00;;;15.61;50.03
83264;BME280;73156;50.988;11.034;2024-03-06T01:47:39;99627.41;;;15.59;50.35
83264;BME280;73156;50.988;11.034;2024-03-06T01:50:05;99625.69;;;15.58;50.79
83264;BME280;73156;50.988;11.034;2024-03-06T01:52:34;99630.19;;;15.59;50.28
83264;BME280;73156;50.988;11.034;2024-03-06T01:54:59;99628.94;;;15.55;50.31
83264;BME280;73156;50.988;11.034;2024-03-06T01:57:25;99626.59;;;15.52;50.20
83264;BME280;73156;50.988;11.034;2024-03-06T01:59:51;99603.91;;;15.30;50.14
83264;BME280;73156;50.988;11.034;2024-03-06T02:02:16;99633.03;;;15.46;49.99
83264;BME280;73156;50.988;11.034;2024-03-06T02:04:42;99623.63;;;15.47;50.58
83264;BME280;73156;50.988;11.034;2024-03-06T02:07:10;99632.81;;;15.47;50.35
83264;BME280;73156;50.988;11.034;2024-03-06T02:09:36;99625.81;;;15.45;50.27
83264;BME280;73156;50.988;11.034;2024-03-06T02:12:02;99625.88;;;15.38;50.46
83264;BME280;73156;50.988;11.034;2024-03-06T02:14:28;99625.59;;;15.40;50.03
83264;BME280;73156;50.988;11.034;2024-03-06T02:16:54;99572.53;;;15.05;49.69
83264;BME280;73156;50.988;11.034;2024-03-06T02:19:19;99623.72;;;15.34;49.94
83264;BME280;73156;50.988;11.034;2024-03-06T02:21:44;99627.38;;;15.28;49.89
83264;BME280;73156;50.988;11.034;2024-03-06T02:24:10;99613.00;;;15.13;50.23
83264;BME280;73156;50.988;11.034;2024-03-06T02:26:38;99623.75;;;15.27;50.50
83264;BME280;73156;50.988;11.034;2024-03-06T02:29:03;99617.75;;;15.30;50.20
83264;BME280;73156;50.988;11.034;2024-03-06T02:31:31;99624.78;;;15.33;49.94
83264;BME280;73156;50.988;11.034;2024-03-06T02:33:56;99634.38;;;15.30;49.82
83264;BME280;73156;50.988;11.034;2024-03-06T02:36:23;99634.59;;;15.29;49.91
83264;BME280;73156;50.988;11.034;2024-03-06T02:38:49;99630.38;;;15.26;49.86
83264;BME280;73156;50.988;11.034;2024-03-06T02:41:14;99636.34;;;15.23;49.93
83264;BME280;73156;50.988;11.034;2024-03-06T02:43:41;99615.09;;;15.17;50.16
83264;BME280;73156;50.988;11.034;2024-03-06T02:46:06;99596.44;;;15.00;49.90
83264;BME280;73156;50.988;11.034;2024-03-06T02:48:32;99642.25;;;15.33;50.04
83264;BME280;73156;50.988;11.034;2024-03-06T02:50:57;99645.53;;;15.24;49.77
83264;BME280;73156;50.988;11.034;2024-03-06T02:53:23;99640.88;;;15.18;50.17
83264;BME280;73156;50.988;11.034;2024-03-06T02:55:48;99644.13;;;15.15;50.36
83264;BME280;73156;50.988;11.034;2024-03-06T02:58:15;99570.25;;;14.65;50.81
83264;BME280;73156;50.988;11.034;2024-03-06T03:00:42;99598.44;;;14.86;50.14
83264;BME280;73156;50.988;11.034;2024-03-06T03:03:07;99652.88;;;15.12;50.44
83264;BME280;73156;50.988;11.034;2024-03-06T03:05:32;99648.19;;;15.06;50.66
83264;BME280;73156;50.988;11.034;2024-03-06T03:07:58;99644.34;;;15.07;50.43
83264;BME280;73156;50.988;11.034;2024-03-06T03:10:24;99646.91;;;15.08;50.37
83264;BME280;73156;50.988;11.034;2024-03-06T03:12:49;99648.63;;;15.09;50.28
83264;BME280;73156;50.988;11.034;2024-03-06T03:15:15;99649.44;;;15.10;50.59
83264;BME280;73156;50.988;11.034;2024-03-06T03:17:40;99652.00;;;15.11;50.19
83264;BME280;73156;50.988;11.034;2024-03-06T03:20:06;99648.19;;;15.06;50.17
83264;BME280;73156;50.988;11.034;2024-03-06T03:22:39;99656.13;;;15.02;50.73
83264;BME280;73156;50.988;11.034;2024-03-06T03:25:14;99618.31;;;14.77;50.66
83264;BME280;73156;50.988;11.034;2024-03-06T03:27:39;99659.72;;;15.03;50.36
83264;BME280;73156;50.988;11.034;2024-03-06T03:30:11;99666.97;;;15.04;50.15
83264;BME280;73156;50.988;11.034;2024-03-06T03:32:37;99668.22;;;15.08;50.22
83264;BME280;73156;50.988;11.034;2024-03-06T03:35:06;99667.16;;;15.09;49.85
83264;BME280;73156;50.988;11.034;2024-03-06T03:37:32;99668.19;;;15.14;50.06
83264;BME280;73156;50.988;11.034;2024-03-06T03:39:58;99667.75;;;15.11;50.01
83264;BME280;73156;50.988;11.034;2024-03-06T03:42:23;99667.16;;;15.09;49.97
83264;BME280;73156;50.988;11.034;2024-03-06T03:44:48;99663.13;;;15.05;49.40
83264;BME280;73156;50.988;11.034;2024-03-06T03:47:13;99669.72;;;15.10;49.55
83264;BME280;73156;50.988;11.034;2024-03-06T03:49:39;99645.75;;;14.91;49.63
83264;BME280;73156;50.988;11.034;2024-03-06T03:52:04;99653.81;;;14.93;49.43
83264;BME280;73156;50.988;11.034;2024-03-06T03:54:29;99658.88;;;15.02;49.22
83264;BME280;73156;50.988;11.034;2024-03-06T03:56:55;99672.66;;;15.15;49.02
83264;BME280;73156;50.988;11.034;2024-03-06T03:59:20;99608.97;;;14.71;49.15
83264;BME280;73156;50.988;11.034;2024-03-06T04:01:46;99685.22;;;15.18;48.91
83264;BME280;73156;50.988;11.034;2024-03-06T04:04:15;99683.34;;;15.12;49.39
83264;BME280;73156;50.988;11.034;2024-03-06T04:06:40;99689.31;;;15.09;49.44
83264;BME280;73156;50.988;11.034;2024-03-06T04:09:05;99690.41;;;15.08;49.49
83264;BME280;73156;50.988;11.034;2024-03-06T04:11:31;99686.56;;;15.09;49.39
83264;BME280;73156;50.988;11.034;2024-03-06T04:13:59;99691.66;;;15.05;49.22
83264;BME280;73156;50.988;11.034;2024-03-06T04:16:24;99695.03;;;15.14;49.39
83264;BME280;73156;50.988;11.034;2024-03-06T04:18:49;99649.97;;;14.94;49.25
83264;BME280;73156;50.988;11.034;2024-03-06T04:21:15;99704.38;;;15.26;50.90
83264;BME280;73156;50.988;11.034;2024-03-06T04:23:40;99677.59;;;15.13;50.96
83264;BME280;73156;50.988;11.034;2024-03-06T04:26:05;99700.06;;;15.36;51.40
83264;BME280;73156;50.988;11.034;2024-03-06T04:28:31;99711.09;;;15.49;51.63
83264;BME280;73156;50.988;11.034;2024-03-06T04:30:57;99712.06;;;15.61;51.48
83264;BME280;73156;50.988;11.034;2024-03-06T04:33:22;99671.88;;;15.33;51.92
83264;BME280;73156;50.988;11.034;2024-03-06T04:35:47;99671.69;;;15.41;52.00
83264;BME280;73156;50.988;11.034;2024-03-06T04:38:12;99712.81;;;15.75;52.40
83264;BME280;73156;50.988;11.034;2024-03-06T04:40:39;99718.28;;;15.81;52.63
83264;BME280;73156;50.988;11.034;2024-03-06T04:43:04;99710.84;;;15.82;52.07
83264;BME280;73156;50.988;11.034;2024-03-06T04:45:29;99720.78;;;15.89;51.68
83264;BME280;73156;50.988;11.034;2024-03-06T04:47:55;99715.53;;;15.81;52.12
83264;BME280;73156;50.988;11.034;2024-03-06T04:50:20;99731.06;;;15.89;51.55
83264;BME280;73156;50.988;11.034;2024-03-06T04:52:46;99730.69;;;15.79;52.01
83264;BME280;73156;50.988;11.034;2024-03-06T04:55:11;99741.63;;;15.74;52.65
83264;BME280;73156;50.988;11.034;2024-03-06T04:57:38;99744.19;;;15.69;52.73
83264;BME280;73156;50.988;11.034;2024-03-06T05:00:06;99707.66;;;15.47;52.62
83264;BME280;73156;50.988;11.034;2024-03-06T05:02:34;99741.25;;;15.64;51.87
83264;BME280;73156;50.988;11.034;2024-03-06T05:05:01;99737.91;;;15.55;52.13
83264;BME280;73156;50.988;11.034;2024-03-06T05:07:28;99741.53;;;15.56;52.41
83264;BME280;73156;50.988;11.034;2024-03-06T05:09:54;99748.94;;;15.62;52.22
83264;BME280;73156;50.988;11.034;2024-03-06T05:12:19;99716.88;;;15.35;52.18
83264;BME280;73156;50.988;11.034;2024-03-06T05:14:44;99746.09;;;15.44;52.01
83264;BME280;73156;50.988;11.034;2024-03-06T05:17:10;99751.59;;;15.50;52.39
83264;BME280;73156;50.988;11.034;2024-03-06T05:19:36;99760.34;;;15.47;52.00
83264;BME280;73156;50.988;11.034;2024-03-06T05:22:01;99755.25;;;15.44;52.55
83264;BME280;73156;50.988;11.034;2024-03-06T05:24:26;99769.91;;;15.51;52.53
83264;BME280;73156;50.988;11.034;2024-03-06T05:26:51;99768.41;;;15.55;51.78
83264;BME280;73156;50.988;11.034;2024-03-06T05:29:17;99766.66;;;15.61;51.57
83264;BME280;73156;50.988;11.034;2024-03-06T05:31:42;99772.22;;;15.61;52.09
83264;BME280;73156;50.988;11.034;2024-03-06T05:34:07;99774.75;;;15.62;51.46
83264;BME280;73156;50.988;11.034;2024-03-06T05:36:33;99774.16;;;15.60;51.05
83264;BME280;73156;50.988;11.034;2024-03-06T05:38:58;99778.03;;;15.53;51.55
83264;BME280;73156;50.988;11.034;2024-03-06T05:41:23;99777.19;;;15.46;51.32
83264;BME280;73156;50.988;11.034;2024-03-06T05:43:48;99784.66;;;15.45;51.71
83264;BME280;73156;50.988;11.034;2024-03-06T05:46:14;99788.94;;;15.41;50.88
83264;BME280;73156;50.988;11.034;2024-03-06T05:48:40;99772.16;;;15.30;51.24
83264;BME280;73156;50.988;11.034;2024-03-06T05:51:06;99787.47;;;15.39;51.57
83264;BME280;73156;50.988;11.034;2024-03-06T05:53:36;99773.41;;;15.34;51.73
83264;BME280;73156;50.988;11.034;2024-03-06T05:56:01;99788.28;;;15.46;51.54
83264;BME280;73156;50.988;11.034;2024-03-06T05:58:26;99788.72;;;15.43;50.61
83264;BME280;73156;50.988;11.034;2024-03-06T06:00:51;99792.41;;;15.37;50.65
83264;BME280;73156;50.988;11.034;2024-03-06T06:03:17;99772.78;;;15.25;50.75
83264;BME280;73156;50.988;11.034;2024-03-06T06:05:43;99796.66;;;15.26;51.05
83264;BME280;73156;50.988;11.034;2024-03-06T06:08:08;99806.09;;;15.19;51.00
83264;BME280;73156;50.988;11.034;2024-03-06T06:10:33;99776.06;;;15.03;51.29
83264;BME280;73156;50.988;11.034;2024-03-06T06:12:59;99810.09;;;15.36;51.27
83264;BME280;73156;50.988;11.034;2024-03-06T06:15:25;99812.63;;;15.37;50.84
83264;BME280;73156;50.988;11.034;2024-03-06T06:17:50;99818.41;;;15.29;50.65
83264;BME280;73156;50.988;11.034;2024-03-06T06:20:15;99822.25;;;15.28;51.15
83264;BME280;73156;50.988;11.034;2024-03-06T06:22:44;99832.47;;;15.28;51.07
83264;BME280;73156;50.988;11.034;2024-03-06T06:25:09;99829.97;;;15.20;50.63
83264;BME280;73156;50.988;11.034;2024-03-06T06:27:35;99825.50;;;15.12;50.67
83264;BME280;73156;50.988;11.034;2024-03-06T06:30:00;99829.16;;;15.06;50.51
83264;BME280;73156;50.988;11.034;2024-03-06T06:32:25;99829.38;;;15.05;51.00
83264;BME280;73156;50.988;11.034;2024-03-06T06:34:50;99830.44;;;15.04;50.92
83264;BME280;73156;50.988;11.034;2024-03-06T06:37:16;99836.38;;;15.07;50.94
83264;BME280;73156;50.988;11.034;2024-03-06T06:39:43;99839.81;;;15.09;50.57
83264;BME280;73156;50.988;11.034;2024-03-06T06:42:08;99842.56;;;15.09;50.61
83264;BME280;73156;50.988;11.034;2024-03-06T06:44:35;99857.91;;;15.05;50.56
83264;BME280;73156;50.988;11.034;2024-03-06T06:47:01;99810.03;;;14.72;50.60
83264;BME280;73156;50.988;11.034;2024-03-06T06:49:26;99865.41;;;14.98;50.09
83264;BME280;73156;50.988;11.034;2024-03-06T06:51:51;99861.78;;;14.98;50.88
83264;BME280;73156;50.988;11.034;2024-03-06T06:54:16;99855.16;;;14.99;50.50
83264;BME280;73156;50.988;11.034;2024-03-06T06:56:42;99879.84;;;15.07;50.58
83264;BME280;73156;50.988;11.034;2024-03-06T06:59:07;99871.34;;;15.08;49.89
83264;BME280;73156;50.988;11.034;2024-03-06T07:01:32;99883.09;;;15.04;50.13
83264;BME280;73156;50.988;11.034;2024-03-06T07:03:58;99885.19;;;15.08;50.67
83264;BME280;73156;50.988;11.034;2024-03-06T07:06:23;99890.72;;;15.21;50.56
83264;BME280;73156;50.988;11.034;2024-03-06T07:08:50;99882.38;;;15.28;50.08
83264;BME280;73156;50.988;11.034;2024-03-06T07:11:16;99893.06;;;15.24;49.63
83264;BME280;73156;50.988;11.034;2024-03-06T07:13:42;99882.41;;;15.15;49.76
83264;BME280;73156;50.988;11.034;2024-03-06T07:16:08;99896.69;;;15.18;49.97
83264;BME280;73156;50.988;11.034;2024-03-06T07:18:34;99878.41;;;14.98;49.85
83264;BME280;73156;50.988;11.034;2024-03-06T07:20:59;99864.56;;;14.91;49.62
83264;BME280;73156;50.988;11.034;2024-03-06T07:23:25;99881.16;;;15.04;49.74
83264;BME280;73156;50.988;11.034;2024-03-06T07:25:50;99894.75;;;15.12;50.10
83264;BME280;73156;50.988;11.034;2024-03-06T07:28:15;99893.50;;;15.15;49.23
83264;BME280;73156;50.988;11.034;2024-03-06T07:30:41;99916.50;;;15.28;49.92
83264;BME280;73156;50.988;11.034;2024-03-06T07:33:06;99893.72;;;15.13;49.42
83264;BME280;73156;50.988;11.034;2024-03-06T07:35:32;99905.41;;;15.22;49.83
83264;BME280;73156;50.988;11.034;2024-03-06T07:37:57;99920.75;;;15.31;49.27
83264;BME280;73156;50.988;11.034;2024-03-06T07:40:23;99905.66;;;15.20;49.23
83264;BME280;73156;50.988;11.034;2024-03-06T07:42:48;99892.22;;;15.04;48.80
83264;BME280;73156;50.988;11.034;2024-03-06T07:45:13;99908.63;;;15.12;48.84
83264;BME280;73156;50.988;11.034;2024-03-06T07:47:39;99891.59;;;15.09;48.55
83264;BME280;73156;50.988;11.034;2024-03-06T07:50:06;99913.31;;;15.18;49.32
83264;BME280;73156;50.988;11.034;2024-03-06T07:52:32;99918.81;;;15.25;49.25
83264;BME280;73156;50.988;11.034;2024-03-06T07:54:57;99914.16;;;15.19;49.26
83264;BME280;73156;50.988;11.034;2024-03-06T07:57:23;99930.31;;;15.35;48.38
83264;BME280;73156;50.988;11.034;2024-03-06T07:59:48;99867.50;;;15.03;48.62
83264;BME280;73156;50.988;11.034;2024-03-06T08:02:14;99924.56;;;15.43;48.75
83264;BME280;73156;50.988;11.034;2024-03-06T08:04:39;99930.13;;;15.43;48.46
83264;BME280;73156;50.988;11.034;2024-03-06T08:07:05;99927.16;;;15.31;48.48
83264;BME280;73156;50.988;11.034;2024-03-06T08:09:30;99946.75;;;15.43;48.50
83264;BME280;73156;50.988;11.034;2024-03-06T08:11:55;99917.53;;;15.27;48.51
83264;BME280;73156;50.988;11.034;2024-03-06T08:14:21;99939.50;;;15.42;48.59
83264;BME280;73156;50.988;11.034;2024-03-06T08:16:46;99943.56;;;15.39;47.93
83264;BME280;73156;50.988;11.034;2024-03-06T08:19:12;99913.72;;;15.22;48.28
83264;BME280;73156;50.988;11.034;2024-03-06T08:21:37;99953.38;;;15.42;48.03
83264;BME280;73156;50.988;11.034;2024-03-06T08:24:03;99953.16;;;15.43;48.36
83264;BME280;73156;50.988;11.034;2024-03-06T08:26:28;99962.34;;;15.44;48.75
83264;BME280;73156;50.988;11.034;2024-03-06T08:28:53;99930.53;;;15.33;48.07
83264;BME280;73156;50.988;11.034;2024-03-06T08:31:19;99963.38;;;15.56;48.44
83264;BME280;73156;50.988;11.034;2024-03-06T08:33:46;99942.28;;;15.42;48.00
83264;BME280;73156;50.988;11.034;2024-03-06T08:36:11;99967.22;;;15.55;47.96
83264;BME280;73156;50.988;11.034;2024-03-06T08:38:38;99951.88;;;15.46;47.86
83264;BME280;73156;50.988;11.034;2024-03-06T08:41:05;99968.47;;;15.52;48.40
83264;BME280;73156;50.988;11.034;2024-03-06T08:43:31;99958.25;;;15.53;48.70
83264;BME280;73156;50.988;11.034;2024-03-06T08:45:56;99965.72;;;15.59;48.09
83264;BME280;73156;50.988;11.034;2024-03-06T08:48:21;99961.44;;;15.56;48.58
83264;BME280;73156;50.988;11.034;2024-03-06T08:50:47;99965.03;;;15.63;48.04
83264;BME280;73156;50.988;11.034;2024-03-06T08:53:12;99966.34;;;15.61;47.94
83264;BME280;73156;50.988;11.034;2024-03-06T08:55:39;99940.59;;;15.41;48.35
83264;BME280;73156;50.988;11.034;2024-03-06T08:58:04;99977.00;;;15.64;47.94
83264;BME280;73156;50.988;11.034;2024-03-06T09:00:29;99977.84;;;15.64;48.19
83264;BME280;73156;50.988;11.034;2024-03-06T09:02:54;99942.69;;;15.45;47.83
83264;BME280;73156;50.988;11.034;2024-03-06T09:05:20;99959.94;;;15.54;48.31
83264;BME280;73156;50.988;11.034;2024-03-06T09:07:47;99972.31;;;15.58;48.25
83264;BME280;73156;50.988;11.034;2024-03-06T09:10:12;99954.84;;;15.51;48.23
83264;BME280;73156;50.988;11.034;2024-03-06T09:12:38;99978.94;;;15.57;48.22
83264;BME280;73156;50.988;11.034;2024-03-06T09:15:04;99992.78;;;15.70;48.41
83264;BME280;73156;50.988;11.034;2024-03-06T09:17:29;99995.09;;;15.73;48.73
83264;BME280;73156;50.988;11.034;2024-03-06T09:19:55;99954.00;;;15.50;48.38
83264;BME280;73156;50.988;11.034;2024-03-06T09:22:21;99984.03;;;15.66;48.31
83264;BME280;73156;50.988;11.034;2024-03-06T09:24:46;99966.78;;;15.51;48.51
83264;BME280;73156;50.988;11.034;2024-03-06T09:27:13;99995.75;;;15.68;48.10
83264;BME280;73156;50.988;11.034;2024-03-06T09:29:39;99999.59;;;15.67;48.30
83264;BME280;73156;50.988;11.034;2024-03-06T09:32:04;100002.34;;;15.67;47.77
83264;BME280;73156;50.988;11.034;2024-03-06T09:34:29;100000.03;;;15.71;48.05
83264;BME280;73156;50.988;11.034;2024-03-06T09:36:55;100004.72;;;15.77;48.54
83264;BME280;73156;50.988;11.034;2024-03-06T09:39:20;99999.38;;;15.75;48.53
83264;BME280;73156;50.988;11.034;2024-03-06T09:41:47;100002.97;;;15.82;48.27
83264;BME280;73156;50.988;11.034;2024-03-06T09:44:14;100001.69;;;15.85;48.31
83264;BME280;73156;50.988;11.034;2024-03-06T09:46:43;99958.22;;;15.59;47.94
83264;BME280;73156;50.988;11.034;2024-03-06T09:49:10;100004.25;;;15.86;48.51
83264;BME280;73156;50.988;11.034;2024-03-06T09:51:36;100008.53;;;15.82;47.80
83264;BME280;73156;50.988;11.034;2024-03-06T09:54:03;100015.78;;;15.83;48.32
83264;BME280;73156;50.988;11.034;2024-03-06T09:56:30;100005.09;;;15.80;48.04
83264;BME280;73156;50.988;11.034;2024-03-06T09:58:55;100011.31;;;15.82;48.24
83264;BME280;73156;50.988;11.034;2024-03-06T10:01:22;100013.41;;;15.87;48.52
83264;BME280;73156;50.988;11.034;2024-03-06T10:03:48;100020.22;;;15.91;47.86
83264;BME280;73156;50.988;11.034;2024-03-06T10:06:14;99984.63;;;15.75;48.14
83264;BME280;73156;50.988;11.034;2024-03-06T10:08:42;100021.88;;;16.05;48.00
83264;BME280;73156;50.988;11.034;2024-03-06T10:11:08;100022.91;;;16.10;47.83
83264;BME280;73156;50.988;11.034;2024-03-06T10:13:33;100019.06;;;16.11;47.78
83264;BME280;73156;50.988;11.034;2024-03-06T10:16:00;100015.41;;;16.17;47.45
83264;BME280;73156;50.988;11.034;2024-03-06T10:18:27;100028.22;;;16.25;47.42
83264;BME280;73156;50.988;11.034;2024-03-06T10:20:53;99983.88;;;16.05;46.74
83264;BME280;73156;50.988;11.034;2024-03-06T10:23:19;100023.50;;;16.32;46.80
83264;BME280;73156;50.988;11.034;2024-03-06T10:25:44;99992.59;;;16.09;47.12
83264;BME280;73156;50.988;11.034;2024-03-06T10:28:11;99997.13;;;16.10;46.68
83264;BME280;73156;50.988;11.034;2024-03-06T10:30:38;100028.19;;;16.31;47.22
83264;BME280;73156;50.988;11.034;2024-03-06T10:33:07;100027.31;;;16.31;46.73
83264;BME280;73156;50.988;11.034;2024-03-06T10:35:33;100025.41;;;16.31;47.28
83264;BME280;73156;50.988;11.034;2024-03-06T10:38:01;100021.09;;;16.35;47.36
83264;BME280;73156;50.988;11.034;2024-03-06T10:40:31;100021.50;;;16.39;46.90
83264;BME280;73156;50.988;11.034;2024-03-06T10:43:01;100017.88;;;16.38;46.76
83264;BME280;73156;50.988;11.034;2024-03-06T10:45:50;100007.44;;;16.34;46.48
83264;BME280;73156;50.988;11.034;2024-03-06T10:48:19;100000.41;;;16.31;45.20
83264;BME280;73156;50.988;11.034;2024-03-06T10:50:46;100009.97;;;16.42;46.11
83264;BME280;73156;50.988;11.034;2024-03-06T10:53:13;100004.00;;;16.38;45.81
83264;BME280;73156;50.988;11.034;2024-03-06T10:55:39;100029.97;;;16.57;46.31
83264;BME280;73156;50.988;11.034;2024-03-06T10:58:06;100028.72;;;16.60;45.65
83264;BME280;73156;50.988;11.034;2024-03-06T11:00:36;100020.16;;;16.55;45.16
83264;BME280;73156;50.988;11.034;2024-03-06T11:03:04;100028.88;;;16.65;46.10
83264;BME280;73156;50.988;11.034;2024-03-06T11:05:34;100032.91;;;16.69;45.57
83264;BME280;73156;50.988;11.034;2024-03-06T11:07:59;100022.44;;;16.71;44.92
83264;BME280;73156;50.988;11.034;2024-03-06T11:10:35;100025.66;;;16.68;45.33
83264;BME280;73156;50.988;11.034;2024-03-06T11:13:02;100023.97;;;16.67;44.95
83264;BME280;73156;50.988;11.034;2024-03-06T11:15:28;100014.13;;;16.64;47.13
83264;BME280;73156;50.988;11.034;2024-03-06T11:17:54;100024.53;;;16.75;48.89
83264;BME280;73156;50.988;11.034;2024-03-06T11:20:20;100024.09;;;16.78;48.89
83264;BME280;73156;50.988;11.034;2024-03-06T11:28:21;100004.84;;;16.83;50.77
83264;BME280;73156;50.988;11.034;2024-03-06T11:31:00;100024.81;;;16.98;50.93
83264;BME280;73156;50.988;11.034;2024-03-06T11:33:43;100014.75;;;16.97;51.92
83264;BME280;73156;50.988;11.034;2024-03-06T11:36:27;100016.41;;;17.05;52.21
83264;BME280;73156;50.988;11.034;2024-03-06T11:39:02;100018.09;;;17.06;54.17
83264;BME280;73156;50.988;11.034;2024-03-06T11:41:30;100017.28;;;17.05;54.21
83264;BME280;73156;50.988;11.034;2024-03-06T11:43:58;100026.38;;;17.12;54.30
83264;BME280;73156;50.988;11.034;2024-03-06T11:47:01;100023.56;;;17.19;53.87
83264;BME280;73156;50.988;11.034;2024-03-06T11:49:28;100022.25;;;17.21;53.87
83264;BME280;73156;50.988;11.034;2024-03-06T11:51:59;100013.03;;;17.27;53.64
83264;BME280;73156;50.988;11.034;2024-03-06T11:54:25;100017.72;;;17.27;53.28
83264;BME280;73156;50.988;11.034;2024-03-06T11:56:56;100021.91;;;17.36;52.85
83264;BME280;73156;50.988;11.034;2024-03-06T12:01:47;99981.66;;;17.20;52.61
83264;BME280;73156;50.988;11.034;2024-03-06T12:04:13;99964.09;;;17.20;52.84
83264;BME280;73156;50.988;11.034;2024-03-06T12:06:39;100016.97;;;17.62;52.52
83264;BME280;73156;50.988;11.034;2024-03-06T12:09:04;99984.69;;;17.61;52.08
83264;BME280;73156;50.988;11.034;2024-03-06T12:11:29;100007.41;;;17.76;51.73
83264;BME280;73156;50.988;11.034;2024-03-06T12:13:56;100004.63;;;17.76;51.08
83264;BME280;73156;50.988;11.034;2024-03-06T12:16:28;99980.28;;;17.72;51.02
83264;BME280;73156;50.988;11.034;2024-03-06T12:18:55;100009.75;;;17.97;51.33
83264;BME280;73156;50.988;11.034;2024-03-06T12:21:23;99981.44;;;17.82;50.94
83264;BME280;73156;50.988;11.034;2024-03-06T12:23:48;100009.28;;;18.00;50.77
83264;BME280;73156;50.988;11.034;2024-03-06T12:26:13;99975.25;;;17.80;50.58
83264;BME280;73156;50.988;11.034;2024-03-06T12:28:39;100008.81;;;18.03;50.64
83264;BME280;73156;50.988;11.034;2024-03-06T12:31:08;99984.38;;;17.87;50.54
83264;BME280;73156;50.988;11.034;2024-03-06T12:33:33;100011.34;;;18.05;50.24
83264;BME280;73156;50.988;11.034;2024-03-06T12:36:08;100014.09;;;18.11;50.33
83264;BME280;73156;50.988;11.034;2024-03-06T12:38:37;99980.91;;;17.92;50.24
83264;BME280;73156;50.988;11.034;2024-03-06T12:41:03;100024.72;;;18.14;50.20
83264;BME280;73156;50.988;11.034;2024-03-06T12:43:29;99995.38;;;18.00;50.01
83264;BME280;73156;50.988;11.034;2024-03-06T12:45:55;100013.59;;;18.14;49.81
83264;BME280;73156;50.988;11.034;2024-03-06T12:48:22;100010.44;;;18.11;51.58
83264;BME280;73156;50.988;11.034;2024-03-06T12:50:47;100016.53;;;18.19;51.66